Time;durP1;ratioP1;P1;durP2;ratioP2;P2;SDS_P1;SDS_P2;PMS_P1;PMS_P2;Temp;Humidity;BMP_temperature;BMP_pressure;BME280_temperature;BME280_humidity;BME280_pressure;Samples;Min_cycle;Max_cycle;Signal;HPM_P1;HPM_P2
2021/09/02 00:01:59;;;;;;;11.48;4.90;;;15.10;99.90;;;;;;5054186;28;20063;-78
2021/09/02 00:04:26;;;;;;;10.27;5.18;;;15.10;99.90;;;;;;5054380;28;20412;-78
2021/09/02 00:06:52;;;;;;;12.38;5.60;;;15.00;99.90;;;;;;5053909;28;20428;-78
2021/09/02 00:09:18;;;;;;;10.57;5.30;;;14.90;99.90;;;;;;5052580;28;20090;-78
2021/09/02 00:11:44;;;;;;;10.38;4.85;;;14.90;99.90;;;;;;5053037;28;20359;-78
2021/09/02 00:14:09;;;;;;;11.10;5.90;;;14.90;99.90;;;;;;5053933;28;20045;-78
2021/09/02 00:16:35;;;;;;;10.00;5.60;;;14.90;99.90;;;;;;5053855;28;20063;-78
2021/09/02 00:19:01;;;;;;;8.60;4.93;;;14.90;99.90;;;;;;5053418;28;20477;-78
2021/09/02 00:21:27;;;;;;;12.55;5.75;;;14.90;99.90;;;;;;5038123;28;20056;-78
2021/09/02 00:23:52;;;;;;;12.13;5.20;;;14.80;99.90;;;;;;5032192;28;20056;-78
2021/09/02 00:26:18;;;;;;;10.05;5.72;;;14.80;99.90;;;;;;5033762;28;20464;-78
2021/09/02 00:28:44;;;;;;;8.65;5.45;;;14.70;99.90;;;;;;5033724;28;20402;-78
2021/09/02 00:31:10;;;;;;;11.15;6.13;;;14.70;99.90;;;;;;5033777;28;20026;-78
2021/09/02 00:33:36;;;;;;;11.27;5.25;;;14.70;99.90;;;;;;5033476;28;20029;-78
2021/09/02 00:36:02;;;;;;;10.35;5.95;;;14.70;99.90;;;;;;5033420;28;20426;-78
2021/09/02 00:38:28;;;;;;;13.65;5.85;;;14.60;99.90;;;;;;5032403;28;20510;-78
2021/09/02 00:40:53;;;;;;;13.38;5.90;;;14.50;99.90;;;;;;5033114;28;20183;-78
2021/09/02 00:43:19;;;;;;;9.88;5.18;;;14.50;99.90;;;;;;5033340;28;20033;-78
2021/09/02 00:45:45;;;;;;;11.10;6.28;;;14.50;99.90;;;;;;5032005;28;20076;-78
2021/09/02 00:48:11;;;;;;;10.73;5.65;;;14.40;99.90;;;;;;5033330;28;20045;-78
2021/09/02 00:50:37;;;;;;;10.15;5.88;;;14.40;99.90;;;;;;5032019;28;20029;-78
2021/09/02 00:53:03;;;;;;;11.93;5.90;;;14.40;99.90;;;;;;5033323;28;20037;-78
2021/09/02 00:55:33;;;;;;;16.92;6.28;;;14.40;99.90;;;;;;5033116;28;20037;-78
2021/09/02 00:58:00;;;;;;;10.45;5.88;;;14.40;99.90;;;;;;5032803;28;20034;-78
2021/09/02 01:00:26;;;;;;;14.35;6.68;;;14.30;99.90;;;;;;5033271;28;20029;-78
2021/09/02 01:02:52;;;;;;;9.45;6.13;;;14.30;99.90;;;;;;5031956;28;20045;-78
2021/09/02 01:05:21;;;;;;;12.45;6.13;;;14.30;99.90;;;;;;5032066;28;20030;-78
2021/09/02 01:07:47;;;;;;;15.10;6.35;;;14.30;99.90;;;;;;5032975;28;20061;-78
2021/09/02 01:10:14;;;;;;;13.25;6.82;;;14.30;99.90;;;;;;5032787;28;20061;-78
2021/09/02 01:12:49;;;;;;;13.35;6.45;;;14.20;99.90;;;;;;5032689;28;20033;-78
2021/09/02 01:15:21;;;;;;;14.73;6.90;;;14.20;99.90;;;;;;5032875;28;20037;-78
2021/09/02 01:17:51;;;;;;;11.68;5.93;;;14.20;99.90;;;;;;5032283;28;20042;-78
2021/09/02 01:20:20;;;;;;;12.05;6.75;;;14.20;99.90;;;;;;5032570;28;20029;-78
2021/09/02 01:22:48;;;;;;;11.88;7.03;;;14.10;99.90;;;;;;5031249;28;20095;-78
2021/09/02 01:25:18;;;;;;;13.00;6.47;;;14.10;99.90;;;;;;5032504;28;20037;-78
2021/09/02 01:27:53;;;;;;;10.32;6.38;;;14.00;99.90;;;;;;5031524;28;20044;-78
2021/09/02 01:30:20;;;;;;;10.02;6.25;;;14.00;99.90;;;;;;5032552;28;20065;-78
2021/09/02 01:32:48;;;;;;;11.90;6.88;;;14.00;99.90;;;;;;5032363;28;20075;-78
2021/09/02 01:35:16;;;;;;;12.75;6.35;;;13.90;99.90;;;;;;5032479;28;20586;-78
2021/09/02 01:37:46;;;;;;;10.65;6.93;;;13.90;99.90;;;;;;5031114;28;20061;-78
2021/09/02 01:40:27;;;;;;;13.73;6.93;;;13.80;99.90;;;;;;5030967;28;20037;-78
2021/09/02 01:42:53;;;;;;;12.60;6.80;;;13.80;99.90;;;;;;5031114;28;20076;-78
2021/09/02 01:45:20;;;;;;;10.00;6.30;;;13.80;99.90;;;;;;5031351;28;20069;-78
2021/09/02 01:47:47;;;;;;;12.93;6.20;;;13.80;99.90;;;;;;5032336;28;20048;-78
2021/09/02 01:50:21;;;;;;;12.13;6.55;;;13.70;99.90;;;;;;5032539;28;20029;-78
2021/09/02 01:52:49;;;;;;;13.65;6.40;;;13.70;99.90;;;;;;5032380;28;20049;-78
2021/09/02 01:55:15;;;;;;;11.55;6.43;;;13.70;99.90;;;;;;5030997;28;20045;-77
2021/09/02 01:57:41;;;;;;;11.10;6.93;;;13.70;99.90;;;;;;5030961;28;20068;-78
2021/09/02 02:00:11;;;;;;;15.32;6.80;;;13.70;99.90;;;;;;5031851;28;20512;-78
2021/09/02 02:02:38;;;;;;;12.05;6.90;;;13.70;99.90;;;;;;5032099;28;20033;-78
2021/09/02 02:05:05;;;;;;;14.45;7.38;;;13.60;99.90;;;;;;5030893;28;20038;-78
2021/09/02 02:07:31;;;;;;;11.73;6.70;;;13.60;99.90;;;;;;5030946;28;20054;-78
2021/09/02 02:09:57;;;;;;;12.63;6.53;;;13.60;99.90;;;;;;5031009;28;20071;-78
2021/09/02 02:12:22;;;;;;;11.80;6.93;;;13.50;99.90;;;;;;5030794;28;20386;-77
2021/09/02 02:14:49;;;;;;;12.90;6.35;;;13.50;99.90;;;;;;5032105;28;20037;-77
2021/09/02 02:17:14;;;;;;;10.38;6.75;;;13.50;99.90;;;;;;5030886;28;20159;-77
2021/09/02 02:19:40;;;;;;;12.88;6.88;;;13.40;99.90;;;;;;5032210;28;20059;-78
2021/09/02 02:22:07;;;;;;;12.75;7.05;;;13.50;99.90;;;;;;5031862;28;20034;-77
2021/09/02 02:24:32;;;;;;;12.38;7.68;;;13.50;99.90;;;;;;5034678;28;20029;-78
2021/09/02 02:26:59;;;;;;;14.85;6.68;;;13.50;99.90;;;;;;5047162;28;20030;-78
2021/09/02 02:29:25;;;;;;;11.15;6.63;;;13.50;99.90;;;;;;5032126;28;20509;-78
2021/09/02 02:31:50;;;;;;;13.23;7.40;;;13.50;99.90;;;;;;5031818;28;20033;-78
2021/09/02 02:34:17;;;;;;;10.38;6.45;;;13.50;99.90;;;;;;5031987;28;20045;-77
2021/09/02 02:36:43;;;;;;;18.40;7.28;;;13.50;99.90;;;;;;5030514;28;20429;-77
2021/09/02 02:39:09;;;;;;;15.77;7.40;;;13.40;99.90;;;;;;5030363;28;20091;-77
2021/09/02 02:41:36;;;;;;;13.82;7.00;;;13.40;99.90;;;;;;5032052;28;20037;-77
2021/09/02 02:44:02;;;;;;;12.82;7.32;;;13.30;99.90;;;;;;5030424;28;20021;-77
2021/09/02 02:46:29;;;;;;;15.00;6.70;;;13.30;99.90;;;;;;5033870;28;20061;-78
2021/09/02 02:48:55;;;;;;;12.63;7.10;;;13.30;99.90;;;;;;5035309;28;20060;-78
2021/09/02 02:51:21;;;;;;;13.20;7.47;;;13.30;99.90;;;;;;5035536;28;20029;-77
2021/09/02 02:53:46;;;;;;;11.50;7.07;;;13.20;99.90;;;;;;5035272;28;20036;-77
2021/09/02 02:56:12;;;;;;;13.35;7.30;;;13.20;99.90;;;;;;5035279;28;20030;-78
2021/09/02 02:58:38;;;;;;;13.90;6.85;;;13.20;99.90;;;;;;5033895;28;20608;-77
2021/09/02 03:01:04;;;;;;;12.90;7.38;;;13.10;99.90;;;;;;5035088;28;20033;-78
2021/09/02 03:03:29;;;;;;;11.68;7.13;;;13.10;99.90;;;;;;5034054;28;20032;-78
2021/09/02 03:05:55;;;;;;;14.63;7.40;;;13.10;99.90;;;;;;5035331;28;20041;-77
2021/09/02 03:08:21;;;;;;;14.48;7.43;;;13.10;99.90;;;;;;5035481;28;20112;-78
2021/09/02 03:10:47;;;;;;;12.38;7.22;;;13.20;99.90;;;;;;5033885;28;20038;-77
2021/09/02 03:13:12;;;;;;;10.90;7.20;;;13.20;99.90;;;;;;5034939;28;20033;-78
2021/09/02 03:15:38;;;;;;;14.63;7.28;;;13.10;99.90;;;;;;5033776;28;20029;-77
2021/09/02 03:18:04;;;;;;;16.13;8.10;;;13.10;99.90;;;;;;5034727;28;20406;-78
2021/09/02 03:20:30;;;;;;;14.15;7.38;;;13.00;99.90;;;;;;5033654;28;20065;-77
2021/09/02 03:22:56;;;;;;;12.52;6.95;;;13.10;99.90;;;;;;5034703;28;20526;-77
2021/09/02 03:25:22;;;;;;;15.23;7.47;;;13.20;99.90;;;;;;5035124;28;20645;-78
2021/09/02 03:27:48;;;;;;;12.88;7.60;;;13.20;99.90;;;;;;5033828;28;20045;-78
2021/09/02 03:30:14;;;;;;;13.45;7.15;;;13.20;99.90;;;;;;5017092;28;20025;-77
2021/09/02 03:32:40;;;;;;;13.07;7.88;;;13.20;99.90;;;;;;5034836;28;20041;-78
2021/09/02 03:35:08;;;;;;;11.52;7.35;;;13.20;99.90;;;;;;5034820;28;20037;-78
2021/09/02 03:37:34;;;;;;;15.07;6.20;;;13.10;99.90;;;;;;5034715;28;20047;-77
2021/09/02 03:40:00;;;;;;;13.68;7.68;;;13.10;99.90;;;;;;5033219;28;20501;-78
2021/09/02 03:42:25;;;;;;;11.85;7.55;;;13.10;99.90;;;;;;5034455;28;20038;-77
2021/09/02 03:44:51;;;;;;;15.20;7.40;;;13.10;99.90;;;;;;5034400;28;20057;-77
2021/09/02 03:47:17;;;;;;;12.80;7.50;;;13.10;99.90;;;;;;5034551;28;20032;-77
2021/09/02 03:49:43;;;;;;;13.05;6.68;;;13.10;99.90;;;;;;5034411;28;20040;-77
2021/09/02 03:52:08;;;;;;;13.05;6.95;;;13.10;99.90;;;;;;5034260;28;20057;-78
2021/09/02 03:54:34;;;;;;;12.45;6.80;;;13.00;99.90;;;;;;5033010;28;20052;-78
2021/09/02 03:57:00;;;;;;;13.13;7.22;;;13.00;99.90;;;;;;5031778;28;20025;-78
2021/09/02 03:59:26;;;;;;;16.60;7.97;;;13.00;99.90;;;;;;5034081;28;20037;-78
2021/09/02 04:01:52;;;;;;;11.32;6.72;;;13.10;99.90;;;;;;5032765;28;20036;-77
2021/09/02 04:04:17;;;;;;;14.13;7.55;;;13.00;99.90;;;;;;5034123;28;20451;-78
2021/09/02 04:06:43;;;;;;;15.15;8.15;;;13.00;99.90;;;;;;5034172;28;20041;-77
2021/09/02 04:09:09;;;;;;;15.23;7.63;;;13.00;99.90;;;;;;5032878;28;20478;-77
2021/09/02 04:11:34;;;;;;;13.90;6.70;;;13.00;99.90;;;;;;5033963;28;20033;-77
2021/09/02 04:14:00;;;;;;;11.73;6.80;;;13.00;99.90;;;;;;5032964;28;20513;-77
2021/09/02 04:16:26;;;;;;;11.85;7.00;;;12.80;99.90;;;;;;5033897;28;20079;-77
2021/09/02 04:18:52;;;;;;;13.68;6.68;;;12.70;99.90;;;;;;5036064;28;20627;-77
2021/09/02 04:21:17;;;;;;;13.88;7.15;;;12.80;99.90;;;;;;5032465;28;20491;-78
2021/09/02 04:23:44;;;;;;;15.10;7.63;;;12.80;99.90;;;;;;5033982;28;20466;-78
2021/09/02 04:26:10;;;;;;;13.93;7.25;;;12.70;99.90;;;;;;5033856;28;20117;-78
2021/09/02 04:28:35;;;;;;;13.82;7.68;;;12.70;99.90;;;;;;5032381;28;20034;-78
2021/09/02 04:31:01;;;;;;;15.18;8.60;;;12.60;99.90;;;;;;5033483;28;20025;-77
2021/09/02 04:33:29;;;;;;;13.35;7.10;;;12.50;99.90;;;;;;5032355;28;20037;-77
2021/09/02 04:35:55;;;;;;;17.45;7.75;;;12.50;99.90;;;;;;5032673;28;20064;-77
2021/09/02 04:38:22;;;;;;;10.85;7.38;;;12.60;99.90;;;;;;5033483;28;20037;-77
2021/09/02 04:40:49;;;;;;;14.23;7.78;;;12.70;99.90;;;;;;5032141;28;20037;-77
2021/09/02 04:43:15;;;;;;;14.77;7.00;;;12.60;99.90;;;;;;5033209;28;20132;-77
2021/09/02 04:45:42;;;;;;;12.27;7.85;;;12.50;99.90;;;;;;5033278;28;20382;-77
2021/09/02 04:48:19;;;;;;;12.35;7.38;;;12.60;99.90;;;;;;5033170;28;20433;-77
2021/09/02 04:50:51;;;;;;;12.18;7.10;;;12.50;99.90;;;;;;5032087;28;20037;-77
2021/09/02 04:53:18;;;;;;;13.55;7.47;;;12.50;99.90;;;;;;5032951;28;20371;-77
2021/09/02 04:55:44;;;;;;;15.38;7.50;;;12.60;99.90;;;;;;5033376;28;20445;-77
2021/09/02 04:58:12;;;;;;;14.85;7.63;;;12.60;99.90;;;;;;5033162;28;20029;-77
2021/09/02 05:00:39;;;;;;;12.82;7.32;;;12.60;99.90;;;;;;5026483;28;20030;-77
2021/09/02 05:03:06;;;;;;;13.88;7.13;;;12.70;99.90;;;;;;5013289;28;20037;-77
2021/09/02 05:05:33;;;;;;;12.60;7.63;;;12.70;99.90;;;;;;5013200;28;20037;-77
2021/09/02 05:07:59;;;;;;;11.50;6.88;;;12.70;99.90;;;;;;5011794;28;20030;-77
2021/09/02 05:10:26;;;;;;;11.73;7.80;;;12.70;99.90;;;;;;5012042;28;20063;-76
2021/09/02 05:12:52;;;;;;;14.00;7.57;;;12.70;99.90;;;;;;5013270;28;20113;-77
2021/09/02 05:15:19;;;;;;;12.43;7.38;;;12.70;99.90;;;;;;5012921;28;20120;-60
2021/09/02 05:17:45;;;;;;;13.32;7.57;;;12.80;99.90;;;;;;5012991;28;20042;-59
2021/09/02 05:20:12;;;;;;;12.88;6.68;;;12.80;99.90;;;;;;5012641;28;20395;-51
2021/09/02 05:22:39;;;;;;;12.75;6.63;;;12.90;99.90;;;;;;5013262;28;20057;-52
2021/09/02 05:25:06;;;;;;;11.48;6.88;;;13.00;99.90;;;;;;5011480;28;20026;-54
2021/09/02 05:27:32;;;;;;;13.13;6.72;;;13.10;99.90;;;;;;5013091;28;20541;-59
2021/09/02 05:29:58;;;;;;;14.63;8.18;;;13.20;99.90;;;;;;5012872;28;20034;-59
2021/09/02 05:32:24;;;;;;;14.60;6.55;;;13.20;99.90;;;;;;5027753;28;20026;-60
2021/09/02 05:34:49;;;;;;;14.25;6.60;;;13.30;99.90;;;;;;5012891;28;20034;-60
2021/09/02 05:37:15;;;;;;;11.27;6.68;;;13.40;99.90;;;;;;5012771;28;20073;-57
2021/09/02 05:39:41;;;;;;;11.45;6.63;;;13.40;99.90;;;;;;5012702;28;20121;-59
2021/09/02 05:42:07;;;;;;;11.38;6.05;;;13.40;99.90;;;;;;5012776;28;20045;-58
2021/09/02 05:44:33;;;;;;;13.55;6.35;;;13.50;99.90;;;;;;5012935;28;20065;-59
2021/09/02 05:46:59;;;;;;;13.57;8.32;;;13.50;99.90;;;;;;5012828;28;20431;-59
2021/09/02 05:49:24;;;;;;;12.18;7.03;;;13.40;99.90;;;;;;5031083;28;20116;-55
2021/09/02 05:51:50;;;;;;;13.05;6.93;;;13.40;99.90;;;;;;5032562;28;20117;-58
2021/09/02 05:54:16;;;;;;;11.32;6.82;;;13.50;99.90;;;;;;5032282;28;20030;-59
2021/09/02 05:56:42;;;;;;;14.60;6.65;;;13.60;99.90;;;;;;5032424;28;20409;-59
2021/09/02 05:59:08;;;;;;;10.30;5.85;;;13.60;99.90;;;;;;5032279;28;20125;-60
2021/09/02 06:01:34;;;;;;;11.07;6.60;;;13.60;99.90;;;;;;5032347;28;20474;-60
2021/09/02 06:03:59;;;;;;;11.15;6.38;;;13.70;99.90;;;;;;5032399;28;20083;-59
2021/09/02 06:06:25;;;;;;;12.32;6.70;;;13.60;99.90;;;;;;5032266;28;20115;-57
2021/09/02 06:08:51;;;;;;;12.05;6.97;;;13.70;99.90;;;;;;5031953;28;20593;-59
2021/09/02 06:11:17;;;;;;;12.73;6.68;;;13.80;99.90;;;;;;5032042;28;20397;-59
2021/09/02 06:13:43;;;;;;;9.80;6.60;;;13.80;99.90;;;;;;5032142;28;20029;-59
2021/09/02 06:16:09;;;;;;;11.88;7.00;;;13.90;99.90;;;;;;5032089;28;20378;-60
2021/09/02 06:18:35;;;;;;;10.82;5.85;;;13.90;99.90;;;;;;5027115;28;20179;-59
2021/09/02 06:21:01;;;;;;;10.57;6.55;;;14.00;99.90;;;;;;5034823;28;20549;-60
2021/09/02 06:23:27;;;;;;;12.07;6.63;;;14.00;99.90;;;;;;5036085;28;20033;-59
2021/09/02 06:25:52;;;;;;;10.10;5.80;;;14.10;99.90;;;;;;5036151;28;20036;-59
2021/09/02 06:28:18;;;;;;;10.75;6.47;;;14.20;99.90;;;;;;5035994;28;20629;-59
2021/09/02 06:30:44;;;;;;;13.60;6.93;;;14.30;99.90;;;;;;5036159;28;20037;-59
2021/09/02 06:33:11;;;;;;;12.10;6.43;;;14.40;99.90;;;;;;5035772;28;20083;-58
2021/09/02 06:35:37;;;;;;;11.80;6.55;;;14.50;99.90;;;;;;5035978;28;20087;-71
2021/09/02 06:38:05;;;;;;;10.60;6.40;;;14.60;99.90;;;;;;5035648;28;20033;-71
2021/09/02 06:40:31;;;;;;;10.43;6.25;;;14.60;99.90;;;;;;5034560;28;20112;-71
2021/09/02 06:42:57;;;;;;;12.30;5.97;;;14.70;99.90;;;;;;5035647;28;20045;-73
2021/09/02 06:45:23;;;;;;;12.25;6.10;;;14.80;99.90;;;;;;5035357;28;20438;-71
2021/09/02 06:47:48;;;;;;;11.57;5.32;;;14.90;99.90;;;;;;5035453;28;20091;-70
2021/09/02 06:50:15;;;;;;;9.02;5.30;;;15.10;99.90;;;;;;5032736;28;20034;-73
2021/09/02 06:52:42;;;;;;;12.00;6.05;;;15.10;99.90;;;;;;5051163;28;20034;-72
2021/09/02 06:55:09;;;;;;;9.32;5.68;;;15.20;99.90;;;;;;5050507;28;20038;-74
2021/09/02 06:57:35;;;;;;;11.73;5.80;;;15.40;99.90;;;;;;5035408;28;20105;-73
2021/09/02 07:00:04;;;;;;;13.98;6.00;;;15.40;99.90;;;;;;5043307;28;20459;-71
2021/09/02 07:02:29;;;;;;;10.80;5.72;;;15.40;99.90;;;;;;5014380;28;20033;-71
2021/09/02 07:04:55;;;;;;;9.15;5.47;;;15.50;99.90;;;;;;5014130;28;20034;-71
2021/09/02 07:07:21;;;;;;;12.70;5.63;;;15.60;99.90;;;;;;5015513;28;20431;-71
2021/09/02 07:09:47;;;;;;;9.23;4.95;;;15.70;99.90;;;;;;5013916;28;20482;-71
2021/09/02 07:12:12;;;;;;;9.23;5.07;;;15.80;99.90;;;;;;5014207;28;20030;-71
2021/09/02 07:14:38;;;;;;;9.70;5.82;;;15.90;99.90;;;;;;5026933;28;20414;-71
2021/09/02 07:17:05;;;;;;;12.88;5.40;;;16.00;99.90;;;;;;5035074;28;20667;-71
2021/09/02 07:19:31;;;;;;;8.05;4.65;;;16.10;99.90;;;;;;5033414;28;20524;-72
2021/09/02 07:21:58;;;;;;;7.95;4.88;;;16.20;99.90;;;;;;5050106;28;20033;-70
2021/09/02 07:24:23;;;;;;;8.65;5.03;;;16.20;99.90;;;;;;5050041;28;20561;-71
2021/09/02 07:26:50;;;;;;;9.57;4.60;;;16.40;99.90;;;;;;5034863;28;20112;-71
2021/09/02 07:29:16;;;;;;;9.77;5.20;;;16.50;99.90;;;;;;5049801;28;20030;-71
2021/09/02 07:31:43;;;;;;;14.60;6.15;;;16.60;99.90;;;;;;5049653;28;20033;-71
2021/09/02 07:34:09;;;;;;;17.23;5.22;;;16.60;99.90;;;;;;5034411;28;20053;-71
2021/09/02 07:36:37;;;;;;;14.82;5.80;;;16.80;99.90;;;;;;5034776;28;20037;-71
2021/09/02 07:39:05;;;;;;;21.02;6.80;;;16.90;99.90;;;;;;5049666;28;20113;-71
2021/09/02 07:41:31;;;;;;;19.10;5.70;;;17.00;99.90;;;;;;5034425;28;20485;-70
2021/09/02 07:43:57;;;;;;;19.00;5.97;;;17.10;99.90;;;;;;5049631;28;20067;-71
2021/09/02 07:46:23;;;;;;;9.43;5.15;;;17.20;99.90;;;;;;5034436;28;20108;-70
2021/09/02 07:48:50;;;;;;;12.90;5.80;;;17.30;99.90;;;;;;5050169;28;20052;-70
2021/09/02 07:51:19;;;;;;;8.65;5.00;;;17.30;99.90;;;;;;5034465;28;20092;-70
2021/09/02 07:53:45;;;;;;;8.93;5.75;;;17.20;99.90;;;;;;5034641;28;20021;-60
2021/09/02 07:56:11;;;;;;;10.73;5.05;;;17.20;99.90;;;;;;5034141;28;20029;-60
2021/09/02 07:58:38;;;;;;;9.27;4.60;;;17.20;99.90;;;;;;5034458;28;20079;-61
2021/09/02 08:01:04;;;;;;;9.95;5.00;;;17.50;99.90;;;;;;5034266;28;20036;-60
2021/09/02 08:03:30;;;;;;;11.05;4.70;;;17.50;99.90;;;;;;5049477;28;20039;-60
2021/09/02 08:05:56;;;;;;;12.05;4.68;;;17.70;99.90;;;;;;5034343;28;20112;-61
2021/09/02 08:08:21;;;;;;;7.85;4.80;;;17.90;99.90;;;;;;5034189;28;20021;-59
2021/09/02 08:10:49;;;;;;;8.02;4.25;;;18.00;99.90;;;;;;5049539;28;20033;-62
2021/09/02 08:13:16;;;;;;;7.97;4.45;;;18.00;99.90;;;;;;5034069;28;20064;-72
2021/09/02 08:15:42;;;;;;;9.40;4.43;;;18.20;99.90;;;;;;5049258;28;20073;-70
2021/09/02 08:18:08;;;;;;;8.35;4.18;;;18.40;99.90;;;;;;5033844;28;20490;-69
2021/09/02 08:20:36;;;;;;;7.78;4.28;;;18.40;99.90;;;;;;5049263;28;20140;-71
2021/09/02 08:23:02;;;;;;;11.38;4.28;;;18.50;99.90;;;;;;5048455;28;20037;-72
2021/09/02 08:25:28;;;;;;;6.97;4.40;;;18.60;99.90;;;;;;5033417;28;20044;-71
2021/09/02 08:27:54;;;;;;;11.82;4.78;;;18.80;99.90;;;;;;5036079;28;20022;-71
2021/09/02 08:30:24;;;;;;;22.27;11.13;;;18.90;99.90;;;;;;5033771;28;20367;-72
2021/09/02 08:32:51;;;;;;;8.53;4.83;;;18.90;99.90;;;;;;5033801;28;20106;-71
2021/09/02 08:35:24;;;;;;;8.25;4.38;;;19.10;99.90;;;;;;5033413;28;20494;-72
2021/09/02 08:37:54;;;;;;;7.97;4.18;;;19.30;99.90;;;;;;5033801;28;20049;-71
2021/09/02 08:40:24;;;;;;;9.40;5.00;;;19.40;99.90;;;;;;5031773;28;20030;-73
2021/09/02 08:42:51;;;;;;;8.57;4.10;;;19.50;99.90;;;;;;5033231;28;20159;-70
2021/09/02 08:45:17;;;;;;;6.43;3.92;;;19.70;99.90;;;;;;5033435;28;20037;-70
2021/09/02 08:47:47;;;;;;;7.97;4.47;;;19.90;99.90;;;;;;5032085;28;20417;-72
2021/09/02 08:50:17;;;;;;;10.68;5.13;;;20.10;99.90;;;;;;5033176;28;20478;-72
2021/09/02 08:52:43;;;;;;;7.07;4.20;;;20.20;99.90;;;;;;5033421;28;20666;-73
2021/09/02 08:55:10;;;;;;;7.40;4.55;;;20.40;99.90;;;;;;5032224;28;20056;-71
2021/09/02 08:57:35;;;;;;;7.63;4.78;;;20.50;99.90;;;;;;5033237;28;20063;-72
2021/09/02 09:00:03;;;;;;;8.98;5.47;;;20.50;99.90;;;;;;5033205;28;20041;-72
2021/09/02 09:02:31;;;;;;;8.82;4.60;;;20.50;99.90;;;;;;5031649;28;20049;-72
2021/09/02 09:05:10;;;;;;;9.00;4.80;;;20.50;99.90;;;;;;5033202;28;20052;-71
2021/09/02 09:07:50;;;;;;;8.82;4.90;;;20.60;99.90;;;;;;5032887;28;20029;-72
2021/09/02 09:10:21;;;;;;;8.07;4.73;;;20.80;99.90;;;;;;5031389;28;20469;-72
2021/09/02 09:13:03;;;;;;;10.18;5.00;;;20.70;99.90;;;;;;5031478;28;20033;-72
2021/09/02 09:15:39;;;;;;;8.98;4.40;;;20.70;99.90;;;;;;5032796;28;20057;-70
2021/09/02 09:18:24;;;;;;;9.60;4.95;;;20.80;99.90;;;;;;5032624;28;20046;-70
2021/09/02 09:21:17;;;;;;;10.25;5.53;;;21.10;99.90;;;;;;5032555;28;20498;-70
2021/09/02 09:23:57;;;;;;;9.13;5.13;;;21.30;99.90;;;;;;5031628;28;20482;-70
2021/09/02 09:26:24;;;;;;;8.45;4.30;;;21.10;99.90;;;;;;5031420;28;20072;-72
2021/09/02 09:28:53;;;;;;;7.15;3.95;;;21.20;99.90;;;;;;5031586;28;20025;-72
2021/09/02 09:31:45;;;;;;;10.32;6.07;;;21.40;99.90;;;;;;5032315;28;20495;-72
2021/09/02 09:34:11;;;;;;;7.63;4.05;;;21.70;99.90;;;;;;5029579;28;20513;-72
2021/09/02 09:36:39;;;;;;;6.18;3.88;;;21.80;99.90;;;;;;5014571;28;20033;-73
2021/09/02 09:39:11;;;;;;;7.10;3.88;;;22.00;99.90;;;;;;5032601;28;20029;-72
2021/09/02 09:41:47;;;;;;;6.13;4.35;;;22.00;99.90;;;;;;5032443;28;20382;-70
2021/09/02 09:44:27;;;;;;;7.80;3.97;;;22.20;99.90;;;;;;5031130;28;20030;-72
2021/09/02 09:47:15;;;;;;;7.13;4.40;;;22.30;99.90;;;;;;5032342;28;20049;-72
2021/09/02 09:49:44;;;;;;;5.97;3.90;;;22.10;99.40;;;;;;5032464;28;20036;-73
2021/09/02 09:52:26;;;;;;;8.13;4.15;;;21.80;99.50;;;;;;5031346;28;20033;-72
2021/09/02 09:55:12;;;;;;;7.32;4.03;;;21.70;99.90;;;;;;5032116;28;20447;-72
2021/09/02 09:57:41;;;;;;;7.05;3.90;;;21.70;99.90;;;;;;5031948;28;20034;-73
2021/09/02 10:00:16;;;;;;;6.60;4.32;;;22.00;99.90;;;;;;5031122;28;20053;-73
2021/09/02 10:02:49;;;;;;;5.72;3.58;;;22.20;99.60;;;;;;5016126;28;20032;-73
2021/09/02 10:05:18;;;;;;;7.25;4.05;;;22.20;99.20;;;;;;5032432;28;20040;-73
2021/09/02 10:07:48;;;;;;;7.47;3.97;;;22.50;99.40;;;;;;5030794;28;20179;-72
2021/09/02 10:10:17;;;;;;;6.35;4.05;;;22.80;98.60;;;;;;5032270;28;20044;-74
2021/09/02 10:12:46;;;;;;;4.95;3.28;;;22.70;97.70;;;;;;5031124;28;20484;-73
2021/09/02 10:15:19;;;;;;;5.95;3.58;;;22.50;97.10;;;;;;5014883;28;20026;-71
2021/09/02 10:17:47;;;;;;;5.93;3.42;;;22.70;97.50;;;;;;5031786;28;20049;-72
2021/09/02 10:20:23;;;;;;;5.55;3.58;;;22.70;98.50;;;;;;5030997;28;20029;-72
2021/09/02 10:22:55;;;;;;;8.05;3.50;;;23.10;97.80;;;;;;5031823;28;20033;-72
2021/09/02 10:25:40;;;;;;;6.05;3.58;;;23.30;96.70;;;;;;5030898;28;20029;-72
2021/09/02 10:28:24;;;;;;;8.75;3.45;;;23.30;97.20;;;;;;5030721;28;20421;-72
2021/09/02 10:30:55;;;;;;;5.82;3.50;;;23.40;96.80;;;;;;5031856;28;20108;-72
2021/09/02 10:33:42;;;;;;;6.65;3.83;;;23.70;96.80;;;;;;5031795;28;20026;-72
2021/09/02 10:36:10;;;;;;;7.82;3.85;;;23.80;96.40;;;;;;5031622;28;20056;-72
2021/09/02 10:38:56;;;;;;;8.98;3.80;;;23.90;96.00;;;;;;5031819;28;20041;-72
2021/09/02 10:41:34;;;;;;;5.63;3.10;;;23.90;95.30;;;;;;5014402;28;20486;-72
2021/09/02 10:44:00;;;;;;;6.95;3.80;;;24.00;95.90;;;;;;5031773;28;20130;-59
2021/09/02 10:46:35;;;;;;;7.30;3.53;;;24.30;95.00;;;;;;5030629;28;20504;-60
2021/09/02 10:49:21;;;;;;;5.90;3.40;;;24.50;95.00;;;;;;5031937;28;20025;-60
2021/09/02 10:52:05;;;;;;;6.57;3.35;;;24.30;93.60;;;;;;5031941;28;20092;-60
2021/09/02 10:54:36;;;;;;;4.68;3.10;;;24.00;93.40;;;;;;5031740;28;20036;-60
2021/09/02 10:57:13;;;;;;;5.70;3.70;;;23.60;94.40;;;;;;5031923;28;20620;-61
2021/09/02 10:59:57;;;;;;;5.47;3.10;;;23.90;94.80;;;;;;5031650;28;20092;-60
2021/09/02 11:02:23;;;;;;;4.55;3.10;;;24.30;94.40;;;;;;5031553;28;20030;-60
2021/09/02 11:05:02;;;;;;;5.68;3.22;;;24.60;93.60;;;;;;5031787;28;20065;-60
2021/09/02 11:07:50;;;;;;;5.25;2.90;;;24.90;93.30;;;;;;5034734;28;20048;-61
2021/09/02 11:10:25;;;;;;;6.50;3.30;;;24.70;93.20;;;;;;5035267;28;20033;-60
2021/09/02 11:13:03;;;;;;;6.28;3.38;;;24.90;93.20;;;;;;5035368;28;20064;-60
2021/09/02 11:15:29;;;;;;;5.38;2.90;;;24.70;93.00;;;;;;5035130;28;20116;-60
2021/09/02 11:18:00;;;;;;;6.93;3.25;;;24.90;91.70;;;;;;5034912;28;20045;-62
2021/09/02 11:20:29;;;;;;;7.28;3.78;;;25.10;91.50;;;;;;5017105;28;20072;-71
2021/09/02 11:23:18;;;;;;;5.72;3.13;;;25.00;91.80;;;;;;5033541;28;20029;-72
2021/09/02 11:25:51;;;;;;;5.60;2.90;;;25.00;92.00;;;;;;5033463;28;20067;-72
2021/09/02 11:28:21;;;;;;;6.47;3.33;;;25.00;91.20;;;;;;5034351;28;20112;-72
2021/09/02 11:30:51;;;;;;;5.93;3.33;;;25.20;91.00;;;;;;5034879;28;20029;-72
2021/09/02 11:33:17;;;;;;;4.70;2.90;;;25.40;91.60;;;;;;5035014;28;20033;-72
2021/09/02 11:35:59;;;;;;;4.63;2.95;;;25.50;91.30;;;;;;5033595;28;20064;-72
2021/09/02 11:38:24;;;;;;;4.03;2.60;;;25.40;90.30;;;;;;5033067;28;20084;-73
2021/09/02 11:40:53;;;;;;;5.90;3.15;;;25.40;90.30;;;;;;5033017;28;20042;-73
2021/09/02 11:43:19;;;;;;;4.78;2.75;;;25.50;91.80;;;;;;5034793;28;20179;-72
2021/09/02 11:45:53;;;;;;;4.85;3.08;;;25.80;90.60;;;;;;5034352;28;20498;-72
2021/09/02 11:48:20;;;;;;;5.60;2.90;;;26.10;90.70;;;;;;5033327;28;20053;-72
2021/09/02 11:51:01;;;;;;;5.00;3.33;;;26.10;91.20;;;;;;5032970;28;20112;-73
2021/09/02 11:53:29;;;;;;;6.82;3.35;;;26.10;90.70;;;;;;5034039;28;20025;-72
2021/09/02 11:55:55;;;;;;;5.05;2.95;;;26.40;90.80;;;;;;5032906;28;20426;-72
2021/09/02 11:58:26;;;;;;;4.65;3.20;;;26.50;88.30;;;;;;5034047;28;20481;-72
2021/09/02 12:01:00;;;;;;;5.43;3.50;;;26.50;88.70;;;;;;5033936;28;20064;-73
2021/09/02 12:03:26;;;;;;;5.80;3.38;;;26.40;89.40;;;;;;5034334;28;20037;-72
2021/09/02 12:05:54;;;;;;;5.75;3.08;;;26.10;89.40;;;;;;5034359;28;20429;-72
2021/09/02 12:08:20;;;;;;;6.70;3.38;;;26.00;87.90;;;;;;5033216;28;20030;-72
2021/09/02 12:10:46;;;;;;;5.10;3.33;;;26.20;87.50;;;;;;5034046;28;20043;-72
2021/09/02 12:13:23;;;;;;;7.22;3.33;;;26.30;89.10;;;;;;5034263;28;20104;-73
2021/09/02 12:16:03;;;;;;;4.65;3.15;;;26.20;87.60;;;;;;5032612;28;20029;-72
2021/09/02 12:18:30;;;;;;;5.88;3.25;;;26.10;88.60;;;;;;5032582;28;20045;-73
2021/09/02 12:21:13;;;;;;;7.18;3.25;;;25.90;86.80;;;;;;5032398;28;20045;-72
2021/09/02 12:23:54;;;;;;;4.78;3.03;;;26.80;88.30;;;;;;5033658;28;20045;-73
2021/09/02 12:26:25;;;;;;;5.32;2.90;;;26.90;87.60;;;;;;5033631;28;20490;-72
2021/09/02 12:28:54;;;;;;;5.07;3.10;;;27.10;85.60;;;;;;5033946;28;20112;-73
2021/09/02 12:31:30;;;;;;;5.30;3.40;;;26.90;84.70;;;;;;5033612;28;20029;-73
2021/09/02 12:34:06;;;;;;;6.82;3.72;;;26.60;88.90;;;;;;5033836;28;20112;-72
2021/09/02 12:36:46;;;;;;;4.53;2.83;;;26.80;85.40;;;;;;5033764;28;20030;-73
2021/09/02 12:39:17;;;;;;;6.10;3.40;;;26.90;83.70;;;;;;5032336;28;20038;-73
2021/09/02 12:41:47;;;;;;;4.75;2.95;;;27.30;83.70;;;;;;5032848;28;20549;-73
2021/09/02 12:44:30;;;;;;;4.43;2.95;;;26.70;83.80;;;;;;5033316;28;20552;-71
2021/09/02 12:47:19;;;;;;;6.50;2.97;;;27.20;85.70;;;;;;5032368;28;20037;-73
2021/09/02 12:49:51;;;;;;;5.72;3.22;;;27.40;84.60;;;;;;5032339;28;20036;-72